メインページ
METAR-TAF:

METAR-TAF

空港 :

Roben-Hood Airport

Big Rapids, ミシガン州, アメリカ合衆国

緯度: 43-43-21N, 経度: 085-30-15W, 海抜: 302m

現時点の気象観測

当レポートは27分前の10:35(UTC)に作成
西の風 4kt
気温 -15°C
湿度 92%
気圧 1025 hPa
視程: 16.1km
高度2300ftの千切れ雲あり

METAR: KRQB 231035Z AUTO 26004KT 10SM BKN023 M15/M16 A3026 RMK AO2 T11471162

時間: 06:02 (11:02 UTC)


TAF: 見つかりません

4,000以上の空港の気象観測と天気予報(METAR報とTAF報)

利用可能な観測所は地図上に黄色い丸と赤い丸で示す。

丸の上にカーソルを重ねると観測所名を参照できる。

次にクリックすると気象観測と天気予報を参照できる。

マップの切り替え:黒色「×」印の緑ボタンをクリックして拡大、「-」印の緑ボタンをクリックして縮小、緑色の三角印をクリックして隣りの地図に切り替え


METAR-TAF: